Time;durP1;ratioP1;P1;durP2;ratioP2;P2;SDS_P1;SDS_P2;PMS_P1;PMS_P2;Temp;Humidity;BMP_temperature;BMP_pressure;BME280_temperature;BME280_humidity;BME280_pressure;Samples;Min_cycle;Max_cycle;Signal;HPM_P1;HPM_P2
2021/12/03 00:00:03;;;;;;;;;;;;;;;3.87;77.12;98961.39;1645045;86;21475;-64
2021/12/03 00:02:31;;;;;;;22.03;16.77;;;;;;;3.83;77.26;98957.48;1634841;86;20139;-64
2021/12/03 00:04:57;;;;;;;24.43;18.30;;;;;;;3.82;77.28;98965.05;1646863;85;21042;-65
2021/12/03 00:07:24;;;;;;;23.35;18.40;;;;;;;3.81;77.33;98971.33;1643683;86;21095;-65
2021/12/03 00:09:50;;;;;;;;;;;;;;;3.79;77.43;98974.65;1640642;86;21207;-65
2021/12/03 00:12:17;;;;;;;24.98;19.55;;;;;;;3.75;77.54;98977.30;1635513;86;20164;-65
2021/12/03 00:14:43;;;;;;;24.52;18.32;;;;;;;3.62;77.90;98977.91;1642471;86;21099;-65
2021/12/03 00:17:10;;;;;;;21.40;17.60;;;;;;;3.56;78.25;98982.08;1638263;86;21103;-65
2021/12/03 00:19:36;;;;;;;24.43;18.77;;;;;;;3.57;78.11;98973.16;1627863;86;21027;-66
2021/12/03 00:22:03;;;;;;;21.15;17.27;;;;;;;3.62;78.00;98972.64;1640685;86;21047;-65
2021/12/03 00:24:29;;;;;;;;;;;;;;;3.68;77.89;98979.33;1639198;86;21051;-64
2021/12/03 00:26:55;;;;;;;26.57;18.17;;;;;;;3.70;77.88;98981.28;1631470;86;20174;-65
2021/12/03 00:29:21;;;;;;;25.62;19.65;;;;;;;3.55;78.27;98976.47;1634977;86;21130;-64
2021/12/03 00:31:47;;;;;;;25.25;18.75;;;;;;;3.48;78.65;98973.73;1637229;86;21027;-66
2021/12/03 00:34:15;;;;;;;23.03;17.20;;;;;;;3.46;78.85;98972.25;1634350;86;21026;-65
2021/12/03 00:36:41;;;;;;;24.00;18.27;;;;;;;3.45;78.95;98971.95;1638934;86;21582;-65
2021/12/03 00:39:07;;;;;;;25.92;18.75;;;;;;;3.46;79.01;98964.34;1628018;86;21047;-65
2021/12/03 00:41:40;;;;;;;27.15;18.85;;;;;;;3.48;78.94;98968.94;1635251;86;21142;-64
2021/12/03 00:44:01;;;;;;;22.40;18.03;;;;;;;3.44;78.96;98970.30;1638908;86;21067;-65
2021/12/03 00:46:28;;;;;;;26.00;18.50;;;;;;;3.40;79.35;98970.33;1637049;86;21157;-65
2021/12/03 00:48:55;;;;;;;23.17;17.63;;;;;;;3.37;79.57;98970.20;1635519;86;21071;-65
2021/12/03 00:51:23;;;;;;;26.90;17.82;;;;;;;3.40;79.42;98968.51;1639154;86;21392;-65
2021/12/03 00:53:53;;;;;;;23.53;19.20;;;;;;;3.44;79.30;98958.44;1628696;86;21071;-64
2021/12/03 00:56:19;;;;;;;24.10;18.43;;;;;;;3.43;79.38;98956.82;1628180;86;21130;-64
2021/12/03 00:58:45;;;;;;;24.75;19.62;;;;;;;3.39;79.46;98960.30;1615762;87;21076;-65
2021/12/03 01:01:14;;;;;;;24.70;18.45;;;;;;;3.34;79.65;98957.36;1633283;86;21020;-64
2021/12/03 01:03:41;;;;;;;24.93;17.30;;;;;;;3.18;79.81;98938.53;1635992;86;21062;-65
2021/12/03 01:06:08;;;;;;;24.33;18.67;;;;;;;3.39;79.64;98969.99;1646789;86;21522;-65
2021/12/03 01:08:35;;;;;;;;;;;;;;;3.42;79.43;98971.78;1618808;87;21056;-64
2021/12/03 01:11:05;;;;;;;31.42;19.87;;;;;;;3.46;79.30;98969.62;1623913;86;20161;-64
2021/12/03 01:13:31;;;;;;;26.13;19.93;;;;;;;3.37;79.46;98966.24;1637919;86;20967;-65
2021/12/03 01:15:58;;;;;;;26.67;19.30;;;;;;;3.35;79.43;98969.52;1629545;86;21061;-65
2021/12/03 01:18:25;;;;;;;24.40;17.82;;;;;;;3.42;79.26;98963.87;1628867;86;21099;-65
2021/12/03 01:20:51;;;;;;;;;;;;;;;3.49;79.01;98962.69;1645005;86;21080;-65
2021/12/03 01:23:18;;;;;;;25.00;18.97;;;;;;;3.52;78.82;98962.32;1642817;86;20147;-65
2021/12/03 01:25:44;;;;;;;21.90;18.92;;;;;;;3.41;79.05;98970.16;1638585;86;21068;-65
2021/12/03 01:28:12;;;;;;;23.57;19.73;;;;;;;3.36;79.20;98967.73;1639161;86;21034;-65
2021/12/03 01:30:39;;;;;;;26.77;18.53;;;;;;;3.36;79.22;98963.78;1635925;86;20976;-65
2021/12/03 01:33:06;;;;;;;24.17;18.63;;;;;;;3.39;79.13;98949.77;1635184;86;21502;-65
2021/12/03 01:35:35;;;;;;;21.60;16.83;;;;;;;3.42;78.98;98950.70;1643477;86;21098;-64
2021/12/03 01:38:05;;;;;;;22.60;18.33;;;;;;;3.30;79.00;98923.97;1636026;86;21114;-64
2021/12/03 01:40:34;;;;;;;26.80;20.07;;;;;;;3.38;79.10;98946.80;1644484;86;20988;-64
2021/12/03 01:43:04;;;;;;;27.93;20.00;;;;;;;3.34;79.27;98944.70;1643938;86;22237;-66
2021/12/03 01:45:37;;;;;;;27.43;17.57;;;;;;;3.31;79.45;98942.74;1638889;86;21073;-64
2021/12/03 01:48:06;;;;;;;25.43;19.73;;;;;;;3.36;79.32;98944.84;1641389;86;21150;-64
2021/12/03 01:50:38;;;;;;;22.80;19.50;;;;;;;3.36;79.34;98944.84;1641294;86;21495;-65
2021/12/03 01:53:06;;;;;;;24.37;19.53;;;;;;;3.34;79.35;98940.75;1612634;87;21074;-63
2021/12/03 01:55:33;;;;;;;22.40;17.87;;;;;;;3.26;79.64;98946.39;1620876;84;21016;-63
2021/12/03 01:58:00;;;;;;;23.23;18.70;;;;;;;3.26;79.63;98938.49;1648126;85;21065;-64
2021/12/03 02:00:31;;;;;;;24.57;19.00;;;;;;;3.35;79.51;98943.69;1650331;85;20986;-64
2021/12/03 02:02:58;;;;;;;24.53;18.87;;;;;;;3.40;79.31;98934.77;1655053;85;21135;-63
2021/12/03 02:05:25;;;;;;;23.90;19.47;;;;;;;3.40;79.21;98939.53;1652923;85;21089;-64
2021/12/03 02:07:52;;;;;;;;;;;;;;;3.38;79.24;98933.63;1660654;85;21017;-63
2021/12/03 02:10:21;;;;;;;25.23;18.53;;;;;;;3.35;79.32;98941.86;1650171;85;20537;-64
2021/12/03 02:12:48;;;;;;;24.33;20.00;;;;;;;3.27;79.48;98931.40;1659177;85;21103;-63
2021/12/03 02:15:15;;;;;;;20.93;18.60;;;;;;;3.30;79.43;98942.91;1648117;85;21067;-64
2021/12/03 02:17:41;;;;;;;;;;;;;;;3.37;79.21;98933.31;1655451;85;21108;-64
2021/12/03 02:20:11;;;;;;;23.53;18.90;;;;;;;3.43;79.08;98935.23;1655486;85;20156;-65
2021/12/03 02:22:40;;;;;;;26.83;20.70;;;;;;;3.42;79.06;98935.41;1650882;85;20988;-64
2021/12/03 02:25:12;;;;;;;23.90;20.00;;;;;;;3.36;79.24;98932.17;1655446;85;21024;-65
2021/12/03 02:27:38;;;;;;;21.60;18.50;;;;;;;3.33;79.28;98916.20;1657935;86;21099;-65
2021/12/03 02:30:08;;;;;;;22.55;18.32;;;;;;;3.29;79.38;98906.52;1661665;85;21112;-65
2021/12/03 02:32:35;;;;;;;25.67;20.23;;;;;;;3.36;79.35;98902.70;1657962;85;21048;-65
2021/12/03 02:35:02;;;;;;;24.10;19.23;;;;;;;3.37;79.35;98906.14;1659097;85;21077;-64
2021/12/03 02:37:28;;;;;;;24.23;19.83;;;;;;;3.37;79.30;98913.56;1660420;85;21115;-65
2021/12/03 02:39:54;;;;;;;23.62;20.00;;;;;;;3.34;79.45;98917.86;1655579;85;21543;-65
2021/12/03 02:42:20;;;;;;;24.72;19.07;;;;;;;3.30;79.59;98922.66;1667030;85;21111;-63
2021/12/03 02:44:48;;;;;;;24.98;20.10;;;;;;;3.30;79.62;98920.02;1652273;86;21024;-63
2021/12/03 02:47:14;;;;;;;24.47;19.47;;;;;;;3.38;79.39;98920.95;1655513;85;21092;-63
2021/12/03 02:49:42;;;;;;;26.23;19.75;;;;;;;3.41;79.33;98912.20;1654046;85;21034;-64
2021/12/03 02:52:11;;;;;;;28.20;21.40;;;;;;;3.18;79.27;98887.18;1658888;85;21520;-63
2021/12/03 02:54:38;;;;;;;22.80;18.50;;;;;;;3.28;79.54;98898.81;1650303;85;21143;-63
2021/12/03 02:57:05;;;;;;;22.07;18.57;;;;;;;3.25;79.75;98897.84;1662042;85;21536;-64
2021/12/03 02:59:32;;;;;;;22.57;17.43;;;;;;;3.24;79.72;98894.40;1653953;85;21042;-63
2021/12/03 03:02:02;;;;;;;26.17;19.77;;;;;;;3.28;79.62;98886.97;1660728;85;20999;-63
2021/12/03 03:04:29;;;;;;;24.80;20.73;;;;;;;2.97;79.50;98834.37;1657989;85;21041;-63
2021/12/03 03:06:56;;;;;;;27.87;21.48;;;;;;;3.25;79.55;98878.91;1655359;85;21044;-64
2021/12/03 03:09:23;;;;;;;23.73;19.98;;;;;;;3.23;79.68;98876.95;1651949;86;21104;-63
2021/12/03 03:11:49;;;;;;;23.67;19.33;;;;;;;3.20;79.74;98866.78;1656848;85;21108;-64
2021/12/03 03:14:15;;;;;;;25.92;19.57;;;;;;;3.24;79.65;98864.12;1655676;85;21064;-64
2021/12/03 03:16:42;;;;;;;23.25;18.65;;;;;;;3.24;79.58;98862.80;1645225;85;21021;-65
2021/12/03 03:19:16;;;;;;;25.10;21.20;;;;;;;3.24;79.65;98860.64;1653440;85;21128;-64
2021/12/03 03:21:44;;;;;;;25.03;20.27;;;;;;;3.23;79.62;98868.23;1657908;85;21016;-65
2021/12/03 03:24:12;;;;;;;24.67;18.83;;;;;;;3.21;79.74;98873.67;1683919;84;21039;-64
2021/12/03 03:26:41;;;;;;;25.10;20.27;;;;;;;3.21;79.70;98869.72;1686066;84;21530;-65
2021/12/03 03:29:10;;;;;;;24.90;19.77;;;;;;;3.31;79.57;98869.47;1683928;84;21086;-66
2021/12/03 03:31:38;;;;;;;24.57;19.33;;;;;;;3.41;79.21;98867.91;1680617;84;20967;-66
2021/12/03 03:34:06;;;;;;;24.50;19.13;;;;;;;3.45;79.04;98862.12;1690211;84;21003;-67
2021/12/03 03:36:36;;;;;;;24.27;19.83;;;;;;;3.46;78.91;98858.47;1693500;84;21023;-66
2021/12/03 03:39:07;;;;;;;25.90;20.60;;;;;;;3.45;78.78;98854.22;1693522;84;21011;-66
2021/12/03 03:41:34;;;;;;;23.63;20.17;;;;;;;3.43;78.80;98852.27;1677037;84;21749;-66
2021/12/03 03:44:01;;;;;;;22.37;18.17;;;;;;;3.45;78.78;98834.46;1689719;84;21070;-65
2021/12/03 03:46:27;;;;;;;23.40;19.62;;;;;;;3.55;78.51;98836.83;1677849;83;20989;-66
2021/12/03 03:48:54;;;;;;;25.05;19.60;;;;;;;3.60;78.29;98825.27;1696951;84;21027;-66
2021/12/03 03:51:21;;;;;;;21.20;17.40;;;;;;;3.67;78.10;98822.23;1682386;84;21526;-65
2021/12/03 03:53:47;;;;;;;;;;;;;;;3.72;77.87;98826.13;1688734;84;20995;-65
2021/12/03 03:56:14;;;;;;;27.73;18.83;;;;;;;3.68;77.65;98824.36;1691490;84;20156;-65
2021/12/03 03:58:41;;;;;;;25.53;19.43;;;;;;;3.58;77.85;98825.95;1691608;84;21062;-66
2021/12/03 04:01:11;;;;;;;21.87;19.27;;;;;;;3.53;77.90;98821.70;1691384;84;21022;-66
2021/12/03 04:03:38;;;;;;;24.53;18.70;;;;;;;3.49;77.87;98831.78;1696363;84;21015;-66
2021/12/03 04:06:05;;;;;;;21.25;17.55;;;;;;;3.46;77.87;98830.00;1694829;84;21086;-65
2021/12/03 04:08:32;;;;;;;23.03;18.17;;;;;;;3.44;78.03;98834.63;1695066;84;21397;-66
2021/12/03 04:11:00;;;;;;;23.77;18.57;;;;;;;3.19;78.39;98814.30;1697404;84;21035;-66
2021/12/03 04:13:27;;;;;;;20.10;16.83;;;;;;;3.36;78.41;98837.36;1664795;84;21002;-66
2021/12/03 04:15:54;;;;;;;21.37;17.67;;;;;;;3.30;78.71;98829.67;1663975;86;21105;-66
2021/12/03 04:18:20;;;;;;;19.92;16.65;;;;;;;3.26;78.78;98831.02;1671663;85;21334;-67
2021/12/03 04:20:48;;;;;;;25.27;20.10;;;;;;;3.22;79.03;98820.50;1650223;85;21352;-66
2021/12/03 04:23:19;;;;;;;24.33;19.93;;;;;;;3.17;79.19;98825.50;1677192;83;21100;-64
2021/12/03 04:25:48;;;;;;;21.90;18.47;;;;;;;3.13;79.37;98827.67;1705562;83;20980;-65
2021/12/03 04:28:16;;;;;;;24.67;17.27;;;;;;;3.14;79.31;98825.34;1697839;83;21137;-64
2021/12/03 04:30:43;;;;;;;25.70;19.00;;;;;;;3.16;79.37;98827.80;1694961;83;21050;-65
2021/12/03 04:33:10;;;;;;;27.60;20.50;;;;;;;3.10;79.65;98824.88;1705606;83;20979;-65
2021/12/03 04:35:37;;;;;;;22.85;18.75;;;;;;;3.04;79.89;98816.38;1704986;83;21510;-65
2021/12/03 04:38:04;;;;;;;20.10;17.40;;;;;;;3.00;80.06;98812.98;1707730;83;21091;-64
2021/12/03 04:40:36;;;;;;;22.47;19.40;;;;;;;2.97;80.17;98811.50;1697049;82;20986;-65
2021/12/03 04:43:03;;;;;;;22.17;17.63;;;;;;;2.98;80.33;98815.78;1703532;83;21066;-65
2021/12/03 04:45:30;;;;;;;28.47;19.27;;;;;;;2.99;80.31;98808.19;1699683;83;21007;-64
2021/12/03 04:47:57;;;;;;;;;;;;;;;2.98;80.45;98808.39;1700469;83;21026;-64
2021/12/03 04:50:27;;;;;;;23.40;16.77;;;;;;;2.93;80.74;98813.66;1705205;83;20150;-66
2021/12/03 04:52:54;;;;;;;23.30;18.37;;;;;;;2.78;81.46;98815.92;1690653;83;20979;-65
2021/12/03 04:55:21;;;;;;;22.80;16.97;;;;;;;2.77;81.67;98817.75;1700170;83;21641;-66
2021/12/03 04:57:50;;;;;;;23.53;18.57;;;;;;;2.80;81.51;98816.06;1702568;83;21070;-65
2021/12/03 05:00:21;;;;;;;25.77;17.87;;;;;;;2.84;81.47;98821.80;1691059;83;21002;-64
2021/12/03 05:02:49;;;;;;;19.27;16.30;;;;;;;2.85;81.43;98826.89;1709464;82;21081;-64
2021/12/03 05:05:16;;;;;;;22.90;18.10;;;;;;;2.84;81.40;98821.29;1715572;83;21570;-66
2021/12/03 05:10:10;;;;;;;23.02;17.95;;;;;;;2.89;81.36;98809.75;1710732;83;21046;-65
2021/12/03 05:12:37;;;;;;;20.77;16.57;;;;;;;2.94;81.17;98806.60;1697694;83;21062;-65
2021/12/03 05:15:05;;;;;;;21.83;17.37;;;;;;;2.92;81.11;98800.20;1698297;83;21026;-66
2021/12/03 05:17:31;;;;;;;22.60;16.77;;;;;;;2.93;81.05;98792.60;1705057;83;21479;-66
2021/12/03 05:19:57;;;;;;;23.98;18.15;;;;;;;2.91;81.27;98786.70;1699517;83;21050;-65
2021/12/03 05:22:23;;;;;;;24.02;18.17;;;;;;;2.87;81.30;98782.79;1699434;83;21078;-66
2021/12/03 05:24:49;;;;;;;22.42;18.07;;;;;;;2.83;81.56;98774.13;1701053;83;21058;-66
2021/12/03 05:27:19;;;;;;;19.02;16.95;;;;;;;2.89;81.42;98766.83;1709255;83;21534;-65
2021/12/03 05:29:48;;;;;;;24.43;17.90;;;;;;;2.95;81.27;98769.25;1707852;83;20963;-66
2021/12/03 05:32:18;;;;;;;21.40;16.50;;;;;;;2.93;81.17;98747.86;1695124;83;21050;-66
2021/12/03 05:34:45;;;;;;;27.00;18.47;;;;;;;2.88;81.36;98737.55;1705606;83;21537;-65
2021/12/03 05:37:11;;;;;;;18.00;15.63;;;;;;;2.86;81.47;98732.48;1708366;83;21018;-66
2021/12/03 05:39:38;;;;;;;22.50;18.25;;;;;;;2.93;81.33;98736.02;1710440;83;21101;-67
2021/12/03 05:42:06;;;;;;;20.40;18.07;;;;;;;2.96;81.20;98737.97;1709810;83;21050;-65
2021/12/03 05:44:32;;;;;;;23.00;17.60;;;;;;;2.96;81.22;98746.70;1709399;83;21029;-67
2021/12/03 05:46:59;;;;;;;23.40;18.20;;;;;;;3.00;81.21;98753.75;1695844;83;21166;-65
2021/12/03 05:49:27;;;;;;;22.43;18.33;;;;;;;3.00;81.27;98753.75;1703557;83;21007;-65
2021/12/03 05:51:55;;;;;;;24.40;18.13;;;;;;;2.98;81.26;98746.02;1706356;83;21003;-65
2021/12/03 05:54:21;;;;;;;22.83;17.07;;;;;;;2.99;81.41;98749.47;1709689;83;21142;-66
2021/12/03 05:56:48;;;;;;;23.35;18.00;;;;;;;3.05;81.26;98752.69;1707482;83;21026;-65
2021/12/03 05:59:14;;;;;;;18.50;16.23;;;;;;;3.17;81.08;98753.91;1698739;84;21011;-64
2021/12/03 06:01:41;;;;;;;;;;;;;;;3.29;80.96;98755.59;1704319;83;21030;-66
2021/12/03 06:04:07;;;;;;;20.00;17.83;;;;;;;3.39;80.66;98753.53;1705002;83;20633;-66
2021/12/03 06:06:34;;;;;;;19.90;16.85;;;;;;;3.36;80.50;98747.80;1693767;83;21561;-67
2021/12/03 06:09:00;;;;;;;19.00;16.40;;;;;;;3.41;80.60;98745.42;1715008;83;21069;-65
2021/12/03 06:11:28;;;;;;;19.30;17.27;;;;;;;3.48;80.45;98750.30;1713718;83;21097;-65
2021/12/03 06:13:53;;;;;;;21.25;16.77;;;;;;;3.54;80.23;98769.31;1700905;84;21133;-66
2021/12/03 06:16:19;;;;;;;22.77;17.12;;;;;;;3.62;79.93;98785.05;1691110;83;21054;-66
2021/12/03 06:18:47;;;;;;;25.30;17.60;;;;;;;3.73;79.28;98804.03;1693093;83;21055;-66
2021/12/03 06:21:14;;;;;;;23.20;18.02;;;;;;;3.81;79.19;98829.81;1702231;83;21074;-66
2021/12/03 06:23:42;;;;;;;24.70;19.33;;;;;;;3.90;79.03;98838.46;1700446;82;21030;-66
2021/12/03 06:26:10;;;;;;;30.67;23.60;;;;;;;3.94;78.87;98850.27;1700597;83;21022;-66
2021/12/03 06:28:39;;;;;;;31.20;24.63;;;;;;;3.95;78.53;98854.53;1700762;83;21058;-67
2021/12/03 06:31:07;;;;;;;34.77;25.73;;;;;;;3.94;78.40;98860.81;1706147;83;20983;-64
2021/12/03 06:33:34;;;;;;;29.03;21.67;;;;;;;3.96;78.26;98862.77;1704257;83;21050;-64
2021/12/03 06:36:04;;;;;;;27.55;21.65;;;;;;;4.04;77.85;98866.63;1700022;83;21113;-65
2021/12/03 06:38:31;;;;;;;28.80;21.30;;;;;;;4.04;77.42;98857.91;1703153;83;21102;-63
2021/12/03 06:40:58;;;;;;;26.80;22.90;;;;;;;3.93;77.60;98860.48;1707524;83;21074;-64
2021/12/03 06:43:25;;;;;;;27.50;20.50;;;;;;;3.77;77.88;98860.17;1700548;83;21041;-63
2021/12/03 06:45:52;;;;;;;24.87;20.33;;;;;;;3.63;78.46;98872.31;1709603;83;21642;-65
2021/12/03 06:48:18;;;;;;;24.43;20.10;;;;;;;3.59;78.74;98876.81;1707884;83;21090;-64
2021/12/03 06:50:45;;;;;;;26.37;19.95;;;;;;;3.58;78.86;98867.27;1706554;83;21557;-63
2021/12/03 06:53:14;;;;;;;21.30;18.73;;;;;;;3.58;79.08;98867.27;1704616;83;21050;-67
2021/12/03 06:55:48;;;;;;;27.23;20.93;;;;;;;3.53;79.38;98874.91;1693610;83;21221;-65
2021/12/03 06:58:17;;;;;;;33.60;22.93;;;;;;;3.46;79.73;98873.47;1707240;83;21094;-64
2021/12/03 07:00:45;;;;;;;24.03;20.67;;;;;;;3.40;80.03;98877.62;1698795;83;21009;-65
2021/12/03 07:03:12;;;;;;;25.73;20.33;;;;;;;3.40;80.14;98880.27;1698365;82;21018;-66
2021/12/03 07:05:38;;;;;;;23.30;18.93;;;;;;;3.44;80.11;98874.95;1697670;83;21034;-65
2021/12/03 07:08:06;;;;;;;27.52;19.60;;;;;;;3.48;80.01;98872.31;1710230;83;21019;-65
2021/12/03 07:10:33;;;;;;;30.20;21.23;;;;;;;3.53;79.98;98874.40;1696392;83;21190;-64
2021/12/03 07:12:59;;;;;;;25.50;21.37;;;;;;;3.57;79.72;98862.50;1715879;83;20975;-65
2021/12/03 07:15:26;;;;;;;27.35;22.52;;;;;;;3.55;79.76;98855.27;1686515;83;20983;-65
2021/12/03 07:17:52;;;;;;;28.17;20.08;;;;;;;3.55;79.70;98853.95;1710633;83;21431;-64
2021/12/03 07:20:21;;;;;;;25.30;19.15;;;;;;;3.54;79.62;98852.30;1707995;83;21027;-66
2021/12/03 07:22:48;;;;;;;22.53;17.73;;;;;;;3.59;79.37;98847.83;1705951;83;20998;-64
2021/12/03 07:25:15;;;;;;;21.23;16.07;;;;;;;3.63;79.07;98850.42;1699743;83;21393;-65
2021/12/03 07:27:42;;;;;;;25.57;19.97;;;;;;;3.65;78.93;98846.59;1704142;83;21525;-65
2021/12/03 07:30:15;;;;;;;22.73;17.70;;;;;;;3.64;79.12;98844.17;1705245;83;21049;-64
2021/12/03 07:32:42;;;;;;;23.73;19.27;;;;;;;3.65;79.20;98849.23;1699135;83;21007;-65
2021/12/03 07:35:09;;;;;;;22.27;17.95;;;;;;;3.68;79.10;98845.44;1699925;83;21014;-65
2021/12/03 07:37:35;;;;;;;;;;;;;;;3.77;78.97;98842.20;1708233;83;20999;-63
2021/12/03 07:40:05;;;;;;;20.70;17.13;;;;;;;3.82;78.79;98845.93;1703176;83;20436;-66
2021/12/03 07:42:33;;;;;;;30.00;20.83;;;;;;;3.82;78.95;98851.20;1701093;83;21506;-64
2021/12/03 07:45:00;;;;;;;27.13;20.40;;;;;;;3.82;78.84;98847.25;1706844;83;21026;-64
2021/12/03 07:47:26;;;;;;;24.93;20.87;;;;;;;3.81;78.85;98856.17;1704472;84;21043;-69
2021/12/03 07:49:53;;;;;;;26.95;21.52;;;;;;;3.83;78.90;98862.59;1701027;83;21026;-68
2021/12/03 07:52:20;;;;;;;26.35;19.42;;;;;;;3.87;78.58;98855.44;1702815;84;22375;-70
2021/12/03 07:54:49;;;;;;;29.80;20.50;;;;;;;3.96;78.43;98861.96;1704002;83;21513;-72
2021/12/03 07:57:15;;;;;;;24.93;21.03;;;;;;;4.02;78.36;98873.90;1695410;84;21133;-72
2021/12/03 07:59:42;;;;;;;24.00;19.87;;;;;;;4.06;78.13;98881.76;1711581;83;20995;-73
2021/12/03 08:02:09;;;;;;;24.73;20.23;;;;;;;4.07;78.10;98883.92;1708472;83;21020;-70
2021/12/03 08:04:35;;;;;;;31.97;22.98;;;;;;;4.08;78.12;98884.22;1700578;83;21082;-72
2021/12/03 08:07:02;;;;;;;22.60;20.07;;;;;;;4.11;78.03;98882.55;1706519;83;21042;-72
2021/12/03 08:09:28;;;;;;;25.23;18.75;;;;;;;4.18;77.69;98890.05;1704147;83;20975;-72
2021/12/03 08:11:54;;;;;;;32.45;20.72;;;;;;;4.27;77.39;98887.61;1707459;82;21495;-72
2021/12/03 08:14:20;;;;;;;29.02;22.17;;;;;;;4.36;77.26;98887.53;1706461;83;20951;-73
2021/12/03 08:16:46;;;;;;;26.80;21.30;;;;;;;4.38;77.20;98881.57;1701760;84;21054;-71
2021/12/03 08:19:12;;;;;;;29.57;21.62;;;;;;;4.39;77.03;98876.11;1671021;84;21007;-73
2021/12/03 08:21:39;;;;;;;29.55;21.75;;;;;;;4.40;76.99;98876.92;1697771;83;20991;-71
2021/12/03 08:24:05;;;;;;;24.67;20.52;;;;;;;4.44;76.94;98893.51;1701646;83;21070;-73
2021/12/03 08:26:32;;;;;;;29.07;20.65;;;;;;;4.56;76.79;98895.20;1694922;83;20967;-71
2021/12/03 08:28:59;;;;;;;27.03;20.70;;;;;;;4.68;76.38;98883.14;1705366;83;21014;-72
2021/12/03 08:31:25;;;;;;;34.75;23.07;;;;;;;4.76;76.15;98876.93;1689343;83;21042;-70
2021/12/03 08:33:52;;;;;;;30.45;23.75;;;;;;;4.79;75.68;98876.56;1701673;83;21501;-71
2021/12/03 08:36:19;;;;;;;29.40;24.57;;;;;;;4.79;75.50;98860.73;1692348;83;21034;-72
2021/12/03 08:38:45;;;;;;;;;;;;;;;4.79;75.25;98856.77;1708657;83;21130;-72
2021/12/03 08:41:17;;;;;;;30.93;24.20;;;;;;;4.76;74.95;98842.61;1717581;82;20126;-71
2021/12/03 08:43:40;;;;;;;29.13;21.57;;;;;;;4.75;74.98;98831.75;1695903;83;21034;-73
2021/12/03 08:46:13;;;;;;;28.55;22.42;;;;;;;4.82;75.08;98822.09;1708410;83;21038;-77
2021/12/03 08:48:41;;;;;;;31.60;23.37;;;;;;;4.89;74.88;98820.81;1696513;83;21081;-73
2021/12/03 08:55:35;;;;;;;35.67;24.47;;;;;;;4.92;74.74;98824.41;1740685;77;21013;-70
2021/12/03 08:58:02;;;;;;;33.38;25.17;;;;;;;4.95;74.74;98826.66;1697034;83;21053;-72
2021/12/03 09:00:30;;;;;;;27.50;22.45;;;;;;;4.97;74.37;98838.35;1688617;83;21036;-69
2021/12/03 09:02:56;;;;;;;31.27;24.43;;;;;;;5.05;74.26;98877.86;1670626;84;21009;-70
2021/12/03 09:05:27;;;;;;;27.55;23.40;;;;;;;5.08;74.05;98872.18;1670487;84;21108;-72
2021/12/03 09:07:51;;;;;;;34.73;25.17;;;;;;;5.09;74.11;98875.15;1667829;84;21139;-69
2021/12/03 09:10:19;;;;;;;36.63;25.77;;;;;;;5.06;74.31;98865.76;1668184;84;21057;-71
2021/12/03 09:12:47;;;;;;;37.43;26.67;;;;;;;5.06;74.35;98862.31;1649679;83;21182;-69
2021/12/03 09:15:16;;;;;;;34.88;26.42;;;;;;;5.03;74.21;98870.11;1629917;86;21067;-70
2021/12/03 09:22:58;;;;;;;37.70;25.77;;;;;;;4.81;74.18;98809.07;1642723;85;21124;-69
2021/12/03 09:25:31;;;;;;;35.90;25.43;;;;;;;5.12;74.26;98885.31;1653006;85;21187;-70
2021/12/03 09:27:51;;;;;;;34.23;26.57;;;;;;;5.09;74.49;98898.92;1662023;85;21062;-68
2021/12/03 09:30:18;;;;;;;36.27;26.77;;;;;;;5.09;74.46;98885.72;1641184;85;21583;-70
2021/12/03 09:32:54;;;;;;;40.37;29.40;;;;;;;5.06;74.41;98884.25;1663890;85;21064;-70
2021/12/03 09:35:13;;;;;;;38.10;28.33;;;;;;;5.06;74.63;98882.92;1661944;84;21076;-69
2021/12/03 09:37:39;;;;;;;41.75;27.62;;;;;;;5.09;74.78;98887.55;1666144;85;21396;-70
2021/12/03 09:40:09;;;;;;;35.23;27.55;;;;;;;5.14;74.49;98875.41;1668754;85;21541;-70
2021/12/03 09:42:38;;;;;;;32.63;25.30;;;;;;;5.24;74.46;98875.09;1660145;85;21019;-70
2021/12/03 09:45:08;;;;;;;30.33;23.93;;;;;;;5.30;73.63;98888.04;1661704;84;21056;-68
2021/12/03 09:47:35;;;;;;;33.90;26.80;;;;;;;5.29;73.20;98885.88;1659817;84;21495;-69
2021/12/03 09:50:07;;;;;;;32.80;24.50;;;;;;;5.24;73.34;98889.11;1662229;84;21067;-68
2021/12/03 09:55:11;;;;;;;27.97;21.37;;;;;;;5.12;73.35;98893.75;1661266;84;21024;-67
2021/12/03 09:57:41;;;;;;;29.03;19.83;;;;;;;4.92;74.20;98914.69;1682833;84;21003;-69
2021/12/03 10:00:21;;;;;;;21.57;17.00;;;;;;;4.74;75.27;98911.13;1682379;84;21062;-69
2021/12/03 10:18:57;;;;;;;12.90;9.70;;;;;;;3.72;77.54;98887.55;1672763;84;21051;-75
2021/12/03 10:44:48;;;;;;;4.83;4.07;;;;;;;3.31;78.92;98944.06;1681133;81;21011;-72
2021/12/03 10:47:08;;;;;;;3.97;2.97;;;;;;;3.30;78.65;98941.59;1638896;86;21126;-71
2021/12/03 10:55:06;;;;;;;6.90;2.83;;;;;;;3.25;78.36;98957.09;1594732;88;21185;-70
2021/12/03 11:05:44;;;;;;;3.27;2.97;;;;;;;3.05;79.61;98965.92;1653810;85;21559;-72
2021/12/03 11:27:59;;;;;;;1.07;1.00;;;;;;;2.93;81.95;98994.45;1630567;87;21509;-73
2021/12/03 11:50:55;;;;;;;2.20;1.30;;;;;;;2.27;84.24;99035.44;1645092;85;21082;-72
2021/12/03 12:15:47;;;;;;;2.30;1.40;;;;;;;2.30;84.24;99086.89;1679286;84;20971;-70
2021/12/03 12:18:34;;;;;;;2.63;1.60;;;;;;;2.28;83.81;99100.66;1663674;84;21141;-73
2021/12/03 12:31:01;;;;;;;2.17;1.63;;;;;;;2.24;84.90;99136.17;1702545;82;21038;-71
2021/12/03 13:21:02;;;;;;;2.60;2.40;;;;;;;2.21;84.00;99200.43;1638057;86;21537;-71
2021/12/03 13:26:13;;;;;;;3.90;2.45;;;;;;;2.22;83.98;99210.45;1631453;86;21521;-71
2021/12/03 13:35:02;;;;;;;2.27;2.03;;;;;;;2.14;84.42;99233.10;1630273;84;21018;-69
2021/12/03 13:59:37;;;;;;;3.67;3.22;;;;;;;2.11;85.48;99300.48;1649978;85;21066;-69
2021/12/03 14:20:45;;;;;;;5.23;4.07;;;;;;;1.92;85.43;99339.67;1676316;84;21071;-69
2021/12/03 14:36:31;;;;;;;10.83;6.97;;;;;;;1.66;85.93;99346.75;1678834;84;21087;-70
2021/12/03 14:42:26;;;;;;;7.10;5.37;;;;;;;1.74;85.89;99369.94;1671674;84;21646;-71
2021/12/03 14:44:21;;;;;;;10.30;7.10;;;;;;;1.79;86.04;99372.12;1650755;81;21004;-69
2021/12/03 14:52:17;;;;;;;14.97;8.13;;;;;;;1.66;86.29;99382.22;1673157;85;20976;-70
2021/12/03 14:54:49;;;;;;;9.57;7.80;;;;;;;1.68;86.39;99386.83;1659647;84;21115;-69
2021/12/03 15:00:10;;;;;;;12.63;8.50;;;;;;;1.77;85.96;99402.95;1711362;82;21106;-67
2021/12/03 15:07:45;;;;;;;9.10;7.53;;;;;;;1.81;86.22;99408.72;1558082;84;21126;-71
2021/12/03 15:10:22;;;;;;;12.33;8.07;;;;;;;1.78;86.53;99407.24;1714887;82;21065;-71
2021/12/03 15:31:24;;;;;;;10.93;9.03;;;;;;;1.79;86.83;99412.00;1657721;85;21226;-71
2021/12/03 15:33:52;;;;;;;8.33;7.27;;;;;;;1.82;86.86;99427.47;1666613;83;21128;-70
2021/12/03 15:36:19;;;;;;;13.57;9.40;;;;;;;1.91;86.64;99435.74;1651343;84;22098;-69
2021/12/03 15:39:06;;;;;;;11.30;10.00;;;;;;;1.98;86.36;99438.56;1666585;84;21191;-71
2021/12/03 15:57:01;;;;;;;13.43;10.90;;;;;;;2.02;84.98;99461.77;1609204;86;21038;-69
2021/12/03 16:05:08;;;;;;;10.40;9.40;;;;;;;1.97;84.67;99465.84;1665824;85;21103;-71
2021/12/03 16:08:10;;;;;;;13.93;11.10;;;;;;;2.03;84.37;99477.86;1657489;85;21531;-71
2021/12/03 16:18:35;;;;;;;18.33;13.17;;;;;;;2.03;84.01;99496.75;1654716;85;20998;-71
2021/12/03 16:20:56;;;;;;;13.27;11.50;;;;;;;1.87;83.92;99478.59;1646583;85;21002;-71
2021/12/03 16:52:07;;;;;;;15.20;12.13;;;;;;;2.04;82.32;99546.55;1654441;85;21704;-69
2021/12/03 16:54:46;;;;;;;16.97;13.70;;;;;;;1.98;81.80;99547.17;1661195;85;21608;-70
2021/12/03 16:57:13;;;;;;;15.53;12.20;;;;;;;1.91;81.52;99544.81;1678362;84;21501;-69
2021/12/03 16:59:43;;;;;;;13.93;12.50;;;;;;;1.89;81.74;99554.65;1663628;84;21038;-71
2021/12/03 17:02:16;;;;;;;17.30;13.40;;;;;;;1.93;81.76;99554.67;1684322;83;21086;-71
2021/12/03 17:04:56;;;;;;;17.53;13.33;;;;;;;1.95;81.78;99564.55;1685018;84;21051;-69
2021/12/03 17:55:26;;;;;;;17.93;12.57;;;;;;;1.82;81.18;99607.47;1664020;85;21033;-72
2021/12/03 17:58:17;;;;;;;16.03;11.60;;;;;;;1.83;81.18;99613.89;1662682;85;21081;-70
2021/12/03 18:00:44;;;;;;;20.57;14.78;;;;;;;1.90;81.10;99621.52;1650522;85;21037;-70
2021/12/03 18:03:10;;;;;;;17.37;13.07;;;;;;;1.93;80.88;99604.62;1660601;85;21580;-70